Tiempo atmosférico en la estación meteorológica de Monterrubio De La Demanda, Burgos (1190 m.)



Fecha
DESCASC
Temp. máxima en grados centígrados (hora)
DESCASC
Temp. mínima en grados centígrados (hora)
DESCASC
Temp. media en grados centígrados
DESCASC
Racha de viento máxima en m/sg (hora)
DESCASC
Velocidad máxima media en intervalos de 10 minutos(hora)
DESCASC
Precipitaciones diarias en mm
DESCASC
Precipitaciones de 00:00 a 06:00 en mm
DESCASC
Precipitaciones de 06:00 a 12:00 en mm
DESCASC
Precipitaciones de 12:00 a 18:00 en mm
DESCASC
Precipitaciones de 18:00 a 24:00 en mm
DESCASC
05-12-2019 4.1 (17:00) 1.4 (23:59) 2.7 13.33 (00:10) 8.06 (00:10) 0 0 0 0 0
04-12-2019 7.8 (15:00) -3.1 (04:10) 2.4 10.83 (23:59) 6.11 (16:00) 0 0 0 0 0
03-12-2019 2.3 (13:50) -2.1 (-00:0) 0.1 11.94 (16:20) 9.72 (16:10) 0.2 0 0.2 0 0
02-12-2019 5.6 (13:50) -0.7 (-00:0) 2.4 13.33 (19:40) 6.11 (19:40) 0 0 0 0 0
01-12-2019 6.8 (14:10) 1.3 (00:00) 4.1 6.67 (16:00) 5.28 (16:00) 0.2 0 0.2 0 0
30-11-2019 9.5 (13:20) 3.5 (00:00) 6.5 13.89 (14:20) 8.89 (14:00) 19 0.2 2.8 15.4 0.6
29-11-2019 11.2 (15:00) 4.8 (00:00) 8 8.61 (00:20) 5.83 (00:30) 4.4 4.4 0 0 0
28-11-2019 7.8 (16:50) 5.7 (00:00) 6.8 15.56 (13:40) 10.28 (05:00) 39.2 7.6 7 2 22.6
27-11-2019 7.1 (00:00) 4.8 (00:00) 6 19.17 (02:10) 11.94 (02:10) -- 0.2 0 -- 5.6
26-11-2019 11.3 (16:40) 6.8 (00:00) 9.1 23.89 (22:30) 12.22 (21:30) 17.6 0 3.8 1.6 12.2
25-11-2019 9.2 (15:10) 4.4 (00:00) 6.8 13.06 (12:10) 7.5 (12:10) 0.2 0 0 0.2 0
24-11-2019 4.7 (23:50) 0.3 (00:00) 2.5 9.17 (02:10) 6.39 (02:10) 0 0 0 0 0
23-11-2019 5.6 (14:50) 0.7 (00:00) 3.1 16.94 (00:10) 11.39 (00:10) 8.4 7.4 1 0 0
22-11-2019 7.9 (17:40) 3.1 (00:00) 5.5 16.11 (23:59) 10.83 (22:40) 7.6 0 0 5.4 2.2
21-11-2019 5.4 (15:00) 1.7 (00:00) 3.6 10.56 (06:50) 6.94 (06:50) 7.6 2 4 1.6 0
20-11-2019 5.6 (13:20) -2.6 (-00:0) 1.5 7.5 (14:10) 5 (14:10) 2.4 0 0 0.4 2
19-11-2019 4.4 (14:40) -3.9 (-00:0) 0.3 7.5 (15:00) 5.56 (15:00) 0 0 0 0 0
18-11-2019 3.4 (14:40) 0.6 (00:00) 2 10.83 (12:10) 5 (17:00) 3.2 0 0 3.2 0
17-11-2019 2 (20:50) -1.5 (-00:0) 0.3 6.67 (23:40) 3.89 (03:00) 0 0 0 0 0
16-11-2019 1.3 (18:10) -5.1 (-00:0) -1.9 9.72 (15:20) 6.11 (15:20) 6.8 0 0.4 5.4 1
15-11-2019 0.4 (15:20) -2 (-00:0) -0.8 6.67 (04:10) 4.44 (04:10) 2.8 0 0 2 0.8
14-11-2019 5 (00:00) -0.8 (-00:0) 2.1 18.06 (04:00) 10.28 (03:10) 9 7.6 1.4 0 0
13-11-2019 8.1 (14:20) 2.8 (00:00) 5.5 13.61 (21:50) 9.17 (23:59) 0.2 0 0.2 0 0
12-11-2019 6.6 (14:50) 0.4 (00:00) 3.5 11.11 (14:30) 7.5 (14:50) 0 0 0 0 0
11-11-2019 4.7 (16:00) 0.1 (00:20) 2.4 10.28 (15:40) 4.72 (14:20) 0 0 0 0 0
10-11-2019 1.8 (01:00) -0.5 (-00:0) 0.6 15.56 (01:40) 5.83 (01:40) 5.6 0.4 0 5 0.2
09-11-2019 4.9 (20:50) 0.5 (00:00) 2.7 13.33 (21:30) 8.61 (21:30) 0 0 0 0 0
08-11-2019 3.7 (16:20) -0.9 (-00:0) 1.4 11.11 (00:30) 7.22 (01:30) 3.4 0 0 3.4 0
07-11-2019 7 (04:50) 0.2 (00:00) 3.6 15.83 (15:00) 10.83 (15:00) 11.2 8.2 0 1.4 1.6
06-11-2019 7.6 (15:30) 2.2 (00:00) 4.9 10 (13:30) 7.5 (13:30) 4.4 1 0 0 3.4

Gráficas

Temp. máximas Temp. mínimas Temp. medias Precipitaciones Rachas de viento máximas Velocidades máximas media en intervalos de 10 minutos

Datos horarios

Fecha y hora oficial Temperatura (ºC) Velocidad del viento (km/h) Dirección del viento Racha (km/h) Dirección de racha Precipitación (mm) Presión (hPa) Tendencia (hPa) Humedad (%)
2019-12-05 23:00:00 2.6 8 Nordeste 18 Este 0 -- -- 92
2019-12-05 22:00:00 3.6 11 Sudeste 18 Sudeste 0 -- -- 93
2019-12-05 21:00:00 3.7 13 Sudeste 24 Este 0 -- -- 93
2019-12-05 20:00:00 3.7 13 Este 21 Este 0 -- -- 91
2019-12-05 19:00:00 3.5 11 Sudeste 17 Sudeste 0 -- -- 93
2019-12-05 18:00:00 3.8 11 Sudeste 33 Este 0 -- -- 91
2019-12-05 17:00:00 4.1 22 Sudeste 31 Sudeste 0 -- -- 92
2019-12-05 16:00:00 3.9 13 Sudeste 21 Este 0 -- -- 95
2019-12-05 15:00:00 3.7 16 Este 22 Este 0 -- -- 97
2019-12-05 14:00:00 3.6 19 Sudeste 32 Sudeste 0 -- -- 97
2019-12-05 13:00:00 3.5 18 Este 25 Sudeste 0 -- -- 97
2019-12-05 12:00:00 3 15 Este 22 Este 0 -- -- 97
2019-12-05 11:00:00 2.9 8 Este 21 Este 0 -- -- 99
2019-12-05 10:00:00 2.5 12 Este 25 Este 0 -- -- 99
2019-12-05 09:00:00 2.5 10 Este 20 Este 0 -- -- 98
2019-12-05 08:00:00 2.7 12 Este 22 Este 0 -- -- 97
2019-12-05 07:00:00 3 14 Este 31 Este 0 -- -- 94
2019-12-05 06:00:00 3.3 12 Nordeste 26 Nordeste 0 -- -- 93
2019-12-05 05:00:00 3.1 11 Sudeste 20 Sudeste 0 -- -- 95
2019-12-05 04:00:00 3.1 12 Sudeste 23 Este 0 -- -- 94
2019-12-05 03:00:00 2.9 6 Este 21 Sudeste 0 -- -- 93
2019-12-05 02:00:00 3.1 16 Sudeste 35 Este 0 -- -- 91
2019-12-05 01:00:00 3.3 22 Este 48 Este 0 -- -- 89
2019-12-05 00:00:00 3.4 15 Este 39 Este 0 -- -- 89
2019-12-04 23:00:00 2.8 17 Este 35 Sudeste 0 -- -- 91
2019-12-04 22:00:00 1.8 12 Este 21 Sudeste 0 -- -- 90
2019-12-04 21:00:00 3.3 13 Este 23 Este 0 -- -- 84
2019-12-04 20:00:00 4 13 Este 27 Este 0 -- -- 88
2019-12-04 19:00:00 4.4 17 Este 37 Nordeste 0 -- -- 91
2019-12-04 18:00:00 4.9 14 Nordeste 24 Nordeste 0 -- -- 84
2019-12-04 17:00:00 6.1 17 Nordeste 28 Nordeste 0 -- -- 82
2019-12-04 16:00:00 6.7 22 Nordeste 31 Nordeste 0 -- -- 84
2019-12-04 15:00:00 7.8 17 Sudeste 22 Sudeste 0 -- -- 81
2019-12-04 14:00:00 6.9 14 Sudeste 20 Sudeste 0 -- -- 84
2019-12-04 13:00:00 6.3 15 Sudeste 28 Sudeste 0 -- -- 84
2019-12-04 12:00:00 6.1 10 Sudeste 18 Sudeste 0 -- -- 88
2019-12-04 11:00:00 2.2 0 Calma 9 Este 0 -- -- 100
2019-12-04 10:00:00 0.2 2 Sudeste 8 Este 0 -- -- 100
2019-12-04 09:00:00 -2.3 0 Calma 9 Este 0 -- -- 98
2019-12-04 08:00:00 -1.3 6 Este 11 Este 0 -- -- 100
2019-12-04 07:00:00 -1.8 8 Sudeste 13 Este 0 -- -- 100
2019-12-04 06:00:00 -2.3 0 Calma 4 Sur 0 -- -- 98
2019-12-04 05:00:00 -2.5 0 Calma 7 Este 0 -- -- 100
2019-12-04 04:00:00 -3 5 Este 8 Este 0 -- -- 98
2019-12-04 03:00:00 -2.5 0 Calma 10 Este 0 -- -- 98
2019-12-04 02:00:00 -1.9 0 Calma 8 Este 0 -- -- 98
2019-12-04 01:00:00 -2 0 Calma 9 Este 0 -- -- 98
2019-12-04 00:00:00 -1.6 9 Este 13 Este 0 -- -- 99
2019-12-03 23:00:00 -1.7 4 Este 15 Sudeste 0 -- -- 98
2019-12-03 22:00:00 -1.1 9 Sudeste 15 Este 0 -- -- 97
2019-12-03 21:00:00 -1.3 14 Este 19 Este 0 -- -- 97
2019-12-03 20:00:00 -0.6 8 Este 17 Sudeste 0 -- -- 95
2019-12-03 19:00:00 0 14 Este 24 Este 0 -- -- 93
2019-12-03 18:00:00 0 13 Sudeste 30 Sudeste 0 -- -- 91
2019-12-03 17:00:00 1.4 24 Sudeste 43 Sudeste 0 -- -- 86
2019-12-03 16:00:00 1.8 27 Sudeste 40 Sudeste 0 -- -- 85
2019-12-03 15:00:00 2.2 25 Sudeste 37 Sudeste 0 -- -- 83
2019-12-03 14:00:00 2.2 25 Sudeste 37 Sudeste 0 -- -- 84
2019-12-03 13:00:00 1.4 26 Sudeste 37 Este 0 -- -- 85
2019-12-03 12:00:00 1.2 19 Sudeste 36 Sudeste 0 -- -- 87
2019-12-03 11:00:00 0.5 27 Sudeste 36 Sudeste 0 -- -- 88
2019-12-03 10:00:00 -0.3 19 Este 30 Este 0 -- -- 91
2019-12-03 09:00:00 -1.7 12 Este 19 Este 0 -- -- 95
2019-12-03 08:00:00 -1.5 9 Este 22 Este 0.2 -- -- 93
2019-12-03 07:00:00 -1.3 14 Este 24 Este 0 -- -- 92
2019-12-03 06:00:00 -1.3 13 Este 22 Este 0 -- -- 94
2019-12-03 05:00:00 -1.2 9 Este 23 Este 0 -- -- 94
2019-12-03 04:00:00 -1.2 12 Este 23 Este 0 -- -- 94
2019-12-03 03:00:00 -1 15 Este 25 Este 0 -- -- 96
2019-12-03 02:00:00 -1.1 13 Este 21 Este 0 -- -- 96
2019-12-03 01:00:00 -0.8 13 Este 22 Este 0 -- -- 95
2019-12-03 00:00:00 -0.7 14 Este 26 Este 0 -- -- 95
2019-12-02 23:00:00 -0.7 13 Este 21 Este 0 -- -- 91
2019-12-02 22:00:00 -0.6 12 Este 34 Nordeste 0 -- -- 89
2019-12-02 21:00:00 0 16 Este 37 Este 0 -- -- 81
2019-12-02 20:00:00 0.3 19 Nordeste 48 Este 0 -- -- 88
2019-12-02 19:00:00 1.3 13 Este 35 Sudeste 0 -- -- 88
2019-12-02 18:00:00 2 16 Este 47 Este 0 -- -- 85
2019-12-02 17:00:00 2.8 18 Este 42 Este 0 -- -- 87
2019-12-02 16:00:00 3.7 12 Este 27 Nordeste 0 -- -- 88
2019-12-02 15:00:00 4.6 15 Este 36 Este 0 -- -- 86
2019-12-02 14:00:00 5.5 17 Sudeste 35 Este 0 -- -- 80
2019-12-02 13:00:00 5 20 Sudeste 33 Sudeste 0 -- -- 87
2019-12-02 12:00:00 4 13 Este 26 Sudeste 0 -- -- 90
2019-12-02 11:00:00 3.9 13 Sudeste 24 Sudeste 0 -- -- 85
2019-12-02 10:00:00 3.1 10 Este 24 Sudeste 0 -- -- 90
2019-12-02 09:00:00 2.7 12 Este 26 Este 0 -- -- 92
2019-12-02 08:00:00 2.8 12 Este 29 Sudeste 0 -- -- 91
2019-12-02 07:00:00 3 12 Este 25 Este 0 -- -- 90
2019-12-02 06:00:00 2.8 9 Este 23 Este 0 -- -- 92
2019-12-02 05:00:00 2.9 12 Este 21 Este 0 -- -- 93
2019-12-02 04:00:00 2.9 6 Este 30 Este 0 -- -- 95
2019-12-02 03:00:00 2.9 9 Nordeste 23 Nordeste 0 -- -- 96
2019-12-02 02:00:00 3.1 8 Nordeste 22 Sudeste 0 -- -- 93
2019-12-02 01:00:00 3.3 12 Este 27 Este 0 -- -- 93
2019-12-02 00:00:00 3.1 5 Este 15 Nordeste 0 -- -- 99
2019-12-01 23:00:00 2.7 8 Este 15 Este 0 -- -- 99
2019-12-01 22:00:00 2.9 8 Este 18 Este 0 -- -- 98
2019-12-01 21:00:00 1.5 6 Sudeste 14 Este 0 -- -- 97
2019-12-01 20:00:00 3 10 Este 21 Este 0 -- -- 94
2019-12-01 19:00:00 3 6 Este 15 Sudeste 0 -- -- 96
2019-12-01 18:00:00 3.6 12 Este 17 Este 0 -- -- 96
2019-12-01 17:00:00 4.2 11 Este 21 Este 0 -- -- 95
2019-12-01 16:00:00 5.1 19 Sudeste 24 Sudeste 0 -- -- 89
2019-12-01 15:00:00 6.5 7 Este 14 Este 0 -- -- 81
2019-12-01 14:00:00 6.7 5 Noroeste 10 Oeste 0 -- -- 80
2019-12-01 13:00:00 6.2 3 Noroeste 8 Oeste 0 -- -- 82
2019-12-01 12:00:00 5.9 3 Sudoeste 7 Sudeste 0 -- -- 89
2019-12-01 11:00:00 4.5 0 Calma 7 Noroeste 0.2 -- -- 91
2019-12-01 10:00:00 3.7 6 Noroeste 13 Oeste 0 -- -- 97
2019-12-01 09:00:00 3.3 4 Norte 8 Norte 0 -- -- 98
2019-12-01 08:00:00 3.2 3 Nordeste 14 Oeste 0 -- -- 99
2019-12-01 07:00:00 3.2 4 Noroeste 11 Noroeste 0 -- -- 99
2019-12-01 06:00:00 3 6 Norte 10 Nordeste 0 -- -- 98
2019-12-01 05:00:00 3 3 Noroeste 8 Noroeste 0 -- -- 99
2019-12-01 04:00:00 3.1 3 Noroeste 12 Noroeste 0 -- -- 100
2019-12-01 03:00:00 3.3 9 Noroeste 20 Noroeste 0 -- -- 100
2019-12-01 02:00:00 3.3 11 Noroeste 21 Oeste 0 -- -- 100
2019-12-01 01:00:00 3.7 12 Oeste 22 Oeste 0 -- -- 100
2019-12-01 00:00:00 4 16 Oeste 31 Oeste 0 -- -- 99
2019-11-30 23:00:00 4.3 18 Oeste 33 Oeste 0 -- -- 98
2019-11-30 22:00:00 4.1 6 Noroeste 12 Noroeste 0 -- -- 98
2019-11-30 21:00:00 4.2 8 Noroeste 14 Oeste 0 -- -- 96
2019-11-30 20:00:00 3.8 7 Noroeste 15 Norte 0 -- -- 97
2019-11-30 19:00:00 3.8 0 Calma 24 Noroeste 0.6 -- -- 97
2019-11-30 18:00:00 4.8 19 Noroeste 31 Noroeste 3.4 -- -- 95
2019-11-30 17:00:00 6.8 13 Noroeste 41 Oeste 2.8 -- -- 100
2019-11-30 16:00:00 7.8 25 Oeste 48 Oeste 5 -- -- 98
2019-11-30 15:00:00 9.4 21 Oeste 50 Oeste 3.4 -- -- 100
2019-11-30 14:00:00 9.5 32 Oeste 46 Oeste 0.6 -- -- 99
2019-11-30 13:00:00 9.4 27 Oeste 44 Oeste 0.2 -- -- 98
2019-11-30 12:00:00 9 24 Oeste 44 Oeste 0.8 -- -- 100
2019-11-30 11:00:00 9 19 Oeste 39 Oeste 0.6 -- -- 99
2019-11-30 10:00:00 8.7 22 Oeste 39 Oeste 1 -- -- 100
2019-11-30 09:00:00 8.8 14 Oeste 37 Oeste 0 -- -- 100
2019-11-30 08:00:00 9 18 Oeste 35 Oeste 0.2 -- -- 100
2019-11-30 07:00:00 9 22 Oeste 36 Oeste 0.2 -- -- 100
2019-11-30 06:00:00 8.8 19 Oeste 32 Sudoeste 0.2 -- -- 100
2019-11-30 05:00:00 8.6 10 Oeste 19 Noroeste 0 -- -- 100
2019-11-30 04:00:00 8.2 9 Noroeste 14 Noroeste 0 -- -- 100
2019-11-30 03:00:00 7.6 5 Norte 9 Norte 0 -- -- 100
2019-11-30 02:00:00 5.5 2 Sudeste 6 Noroeste 0 -- -- 100
2019-11-30 01:00:00 6.5 5 Norte 8 Norte 0 -- -- 100
2019-11-30 00:00:00 5.2 4 Noroeste 8 Noroeste 0 -- -- 99
2019-11-29 23:00:00 4.8 0 Calma 9 Oeste 0 -- -- 99
2019-11-29 22:00:00 5.3 5 Oeste 8 Oeste 0 -- -- 97
2019-11-29 21:00:00 5.9 5 Noroeste 10 Oeste 0 -- -- 97
2019-11-29 20:00:00 6.7 6 Noroeste 8 Oeste 0 -- -- 96
2019-11-29 19:00:00 6.7 4 Noroeste 16 Noroeste 0 -- -- 94
2019-11-29 18:00:00 8.1 10 Noroeste 17 Noroeste 0 -- -- 88
2019-11-29 17:00:00 9.6 14 Oeste 23 Oeste 0 -- -- 82
2019-11-29 16:00:00 10.4 14 Noroeste 25 Oeste 0 -- -- 78
2019-11-29 15:00:00 11.2 17 Oeste 25 Oeste 0 -- -- 77
2019-11-29 14:00:00 10.7 18 Oeste 30 Oeste 0 -- -- 79
2019-11-29 13:00:00 10.2 10 Oeste 22 Oeste 0 -- -- 89
2019-11-29 12:00:00 9.6 6 Noroeste 16 Oeste 0 -- -- 96
2019-11-29 11:00:00 8.1 8 Noroeste 12 Oeste 0 -- -- 100
2019-11-29 10:00:00 8 6 Noroeste 10 Noroeste 0 -- -- 100
2019-11-29 09:00:00 6.9 6 Noroeste 10 Noroeste 0 -- -- 100
2019-11-29 08:00:00 7.2 7 Noroeste 14 Oeste 0 -- -- 100
2019-11-29 07:00:00 7.4 9 Noroeste 19 Noroeste 0 -- -- 100
2019-11-29 06:00:00 7.7 11 Noroeste 22 Oeste 0 -- -- 100
2019-11-29 05:00:00 7.7 18 Noroeste 28 Noroeste 0 -- -- 100
2019-11-29 04:00:00 7.9 12 Noroeste 22 Oeste 0.2 -- -- 100
2019-11-29 03:00:00 8 12 Noroeste 27 Oeste 0.4 -- -- 100
2019-11-29 02:00:00 7.9 14 Noroeste 29 Noroeste 1.2 -- -- 100
2019-11-29 01:00:00 7.8 13 Noroeste 31 Oeste 2.6 -- -- 100
2019-11-29 00:00:00 7.6 22 Oeste 41 Oeste 4.6 -- -- 100
2019-11-28 23:00:00 7.4 24 Oeste 41 Oeste 2.8 -- -- 100
2019-11-28 22:00:00 7.4 23 Oeste 47 Oeste 5.4 -- -- 100
2019-11-28 21:00:00 7.5 21 Oeste 35 Noroeste 4 -- -- 100
2019-11-28 20:00:00 7.4 22 Oeste 39 Oeste 2.4 -- -- 100
2019-11-28 19:00:00 7.1 21 Noroeste 37 Oeste 3.4 -- -- 100
2019-11-28 18:00:00 7.2 21 Oeste 49 Oeste 1.4 -- -- 97
2019-11-28 17:00:00 7.8 27 Oeste 45 Oeste 0 -- -- 95
2019-11-28 16:00:00 7.6 24 Oeste 55 Oeste 0.2 -- -- 99
2019-11-28 15:00:00 7.4 24 Oeste 47 Oeste 0.2 -- -- 100
2019-11-28 14:00:00 7.2 29 Oeste 56 Oeste 0 -- -- 100
2019-11-28 13:00:00 6.8 19 Oeste 39 Oeste 0.2 -- -- 100
2019-11-28 12:00:00 6.8 23 Oeste 35 Noroeste 0.8 -- -- 100
2019-11-28 11:00:00 6.5 18 Noroeste 35 Oeste 0.6 -- -- 100
2019-11-28 10:00:00 6.3 23 Oeste 45 Oeste 0.2 -- -- 100
2019-11-28 09:00:00 6.4 30 Noroeste 48 Oeste 0.6 -- -- 100
2019-11-28 08:00:00 6.3 25 Noroeste 40 Oeste 3 -- -- 100
2019-11-28 07:00:00 6.1 19 Oeste 39 Oeste 1.8 -- -- 100
2019-11-28 06:00:00 6 28 Noroeste 47 Oeste 0.8 -- -- 100
2019-11-28 05:00:00 5.9 37 Oeste 54 Oeste 1.2 -- -- 100
2019-11-28 04:00:00 5.8 30 Oeste 55 Oeste 2 -- -- 100
2019-11-28 03:00:00 5.8 32 Oeste 52 Noroeste 1 -- -- 100
2019-11-28 02:00:00 5.7 27 Oeste 47 Oeste 1.6 -- -- 100
2019-11-28 01:00:00 5.8 31 Oeste 46 Oeste 1 -- -- 100
2019-11-28 00:00:00 5.8 28 Oeste 50 Oeste 0.4 -- -- 100
2019-11-27 23:00:00 5.8 27 Oeste 39 Noroeste 0.4 -- -- 99
2019-11-27 22:00:00 5.7 23 Oeste 40 Oeste 0 -- -- 98
2019-11-27 21:00:00 6 23 Oeste 45 Noroeste 0.6 -- -- 99
2019-11-27 20:00:00 5.8 21 Noroeste 46 Oeste 3.6 -- -- 100
2019-11-27 19:00:00 6.2 30 Oeste 51 Oeste 0.6 -- -- 98
2019-11-27 18:00:00 6.1 22 Oeste 50 Oeste 1.6 -- -- 98
2019-11-27 17:00:00 6 22 Oeste 51 Oeste 1.4 -- -- 98
2019-11-27 16:00:00 6.1 18 Noroeste 33 Oeste 0.4 -- -- 96
2019-11-27 15:00:00 6.1 19 Oeste 42 Oeste 0 -- -- 93
2019-11-27 14:00:00 6.3 26 Oeste 44 Oeste 0 -- -- 94
2019-11-27 06:00:00 -- -- -- -- -- -- -- -- --
2019-11-27 05:00:00 -- -- -- -- -- -- -- -- --
2019-11-27 04:00:00 -- -- -- -- -- -- -- -- --
2019-11-27 03:00:00 5.7 33 Oeste 69 Oeste 0 -- -- 95
2019-11-27 02:00:00 6.3 39 Oeste 62 Oeste 0 -- -- 94
2019-11-27 01:00:00 6.8 29 Oeste 63 Oeste 0.2 -- -- 98
2019-11-27 00:00:00 7.1 35 Oeste 56 Oeste 1.6 -- -- 100
2019-11-26 23:00:00 7.1 34 Oeste 86 Noroeste 6.8 -- -- 99
2019-11-26 22:00:00 9.3 43 Oeste 71 Oeste 1.6 -- -- 88
2019-11-26 21:00:00 9.4 30 Oeste 72 Oeste 0.2 -- -- 93
2019-11-26 20:00:00 9.8 37 Oeste 58 Sudoeste 1 -- -- 97
2019-11-26 19:00:00 10.3 30 Oeste 52 Oeste 1 -- -- 94
2019-11-26 18:00:00 10.2 19 Oeste 42 Oeste 1.2 -- -- 96
2019-11-26 17:00:00 11.2 19 Oeste 48 Oeste 0.2 -- -- 92
2019-11-26 16:00:00 10.9 30 Oeste 51 Oeste 0 -- -- 96
2019-11-26 15:00:00 10.7 29 Oeste 49 Oeste 0 -- -- 97
2019-11-26 14:00:00 10.2 26 Oeste 47 Oeste 0.2 -- -- 100
2019-11-26 13:00:00 9.6 29 Oeste 45 Oeste 0 -- -- 100
2019-11-26 12:00:00 9.3 21 Oeste 43 Oeste 0.4 -- -- 100
2019-11-26 11:00:00 8.9 11 Noroeste 23 Noroeste 1.4 -- -- 100
2019-11-26 10:00:00 8.1 8 Noroeste 14 Norte 0.6 -- -- 100
2019-11-26 09:00:00 7.6 8 Noroeste 19 Noroeste 0.4 -- -- 100
2019-11-26 08:00:00 7.3 10 Noroeste 18 Noroeste 0.6 -- -- 100
2019-11-26 07:00:00 7.1 13 Noroeste 19 Noroeste 0.4 -- -- 100
2019-11-26 06:00:00 7 9 Noroeste 14 Noroeste 0 -- -- 98
2019-11-26 05:00:00 7.1 14 Noroeste 22 Noroeste 0 -- -- 97
2019-11-26 04:00:00 6.9 8 Noroeste 15 Oeste 0 -- -- 98
2019-11-26 03:00:00 6.9 12 Noroeste 17 Noroeste 0 -- -- 98
2019-11-26 02:00:00 6.9 10 Noroeste 20 Noroeste 0 -- -- 97
2019-11-26 01:00:00 7 11 Noroeste 24 Oeste 0 -- -- 98
2019-11-26 00:00:00 7.2 14 Noroeste 26 Noroeste 0 -- -- 97
2019-11-25 23:00:00 7.2 15 Noroeste 23 Oeste 0 -- -- 98
2019-11-25 22:00:00 7.2 16 Noroeste 24 Oeste 0 -- -- 98
2019-11-25 21:00:00 7.3 15 Oeste 23 Oeste 0 -- -- 97
2019-11-25 20:00:00 7.1 11 Noroeste 17 Oeste 0 -- -- 98
2019-11-25 19:00:00 7.3 13 Noroeste 30 Oeste 0 -- -- 96
2019-11-25 18:00:00 7.9 19 Oeste 27 Oeste 0 -- -- 97
2019-11-25 17:00:00 8 15 Oeste 30 Oeste 0 -- -- 98
2019-11-25 16:00:00 8.7 15 Noroeste 34 Oeste 0 -- -- 92
2019-11-25 15:00:00 9.1 23 Noroeste 35 Oeste 0 -- -- 93
2019-11-25 14:00:00 8.4 23 Oeste 41 Oeste 0 -- -- 97
2019-11-25 13:00:00 8.3 22 Oeste 47 Noroeste 0.2 -- -- 99
2019-11-25 12:00:00 8.1 26 Oeste 43 Oeste 0 -- -- 100
2019-11-25 11:00:00 7.8 25 Oeste 38 Oeste 0 -- -- 100
2019-11-25 10:00:00 7.1 22 Oeste 33 Oeste 0 -- -- 100
2019-11-25 09:00:00 7 20 Noroeste 37 Noroeste 0 -- -- 100
2019-11-25 08:00:00 7 26 Oeste 42 Oeste 0 -- -- 100
2019-11-25 07:00:00 7.2 26 Oeste 38 Oeste 0 -- -- 100
2019-11-25 06:00:00 7 13 Noroeste 33 Noroeste 0 -- -- 100
2019-11-25 05:00:00 7 22 Oeste 42 Noroeste 0 -- -- 100
2019-11-25 04:00:00 6.8 16 Oeste 30 Noroeste 0 -- -- 100
2019-11-25 03:00:00 5 10 Noroeste 14 Noroeste 0 -- -- 100
2019-11-25 02:00:00 4.5 4 Oeste 14 Noroeste 0 -- -- 100
2019-11-25 01:00:00 5.1 9 Norte 18 Noroeste 0 -- -- 100
2019-11-25 00:00:00 4.7 12 Noroeste 20 Noroeste 0 -- -- 100
2019-11-24 23:00:00 4.4 14 Noroeste 24 Noroeste 0 -- -- 100
2019-11-24 22:00:00 3.9 10 Norte 18 Noroeste 0 -- -- 100
2019-11-24 21:00:00 3.7 12 Noroeste 19 Noroeste 0 -- -- 100
2019-11-24 20:00:00 3.6 17 Noroeste 26 Oeste 0 -- -- 98
2019-11-24 19:00:00 3.6 14 Noroeste 21 Oeste 0 -- -- 93
2019-11-24 18:00:00 3.6 10 Noroeste 27 Oeste 0 -- -- 91
2019-11-24 17:00:00 3.8 12 Oeste 27 Oeste 0 -- -- 88
2019-11-24 16:00:00 3.9 16 Oeste 27 Oeste 0 -- -- 86
2019-11-24 15:00:00 3.4 10 Oeste 27 Oeste 0 -- -- 89
2019-11-24 14:00:00 2.6 17 Noroeste 29 Noroeste 0 -- -- 94
2019-11-24 13:00:00 2.1 15 Oeste 25 Oeste 0 -- -- 98
2019-11-24 12:00:00 1.7 17 Oeste 24 Oeste 0 -- -- 99
2019-11-24 11:00:00 1.6 14 Oeste 21 Oeste 0 -- -- 99
2019-11-24 10:00:00 1.3 10 Oeste 23 Oeste 0 -- -- 100
2019-11-24 09:00:00 1.2 12 Oeste 17 Oeste 0 -- -- 99
2019-11-24 08:00:00 0.5 2 Noroeste 9 Noroeste 0 -- -- 98
2019-11-24 07:00:00 0.3 7 Oeste 15 Noroeste 0 -- -- 95
2019-11-24 06:00:00 0.9 8 Oeste 24 Noroeste 0 -- -- 92
2019-11-24 05:00:00 1.7 11 Noroeste 30 Noroeste 0 -- -- 92
2019-11-24 04:00:00 1.4 12 Noroeste 27 Oeste 0 -- -- 96
2019-11-24 03:00:00 1.7 12 Noroeste 33 Oeste 0 -- -- 96
2019-11-24 02:00:00 1.6 16 Noroeste 29 Oeste 0 -- -- 97
2019-11-24 01:00:00 1.9 16 Oeste 28 Oeste 0 -- -- 96
2019-11-24 00:00:00 2.3 19 Oeste 30 Oeste 0 -- -- 95
2019-11-23 23:00:00 2.7 19 Oeste 31 Oeste 0 -- -- 95
2019-11-23 22:00:00 2.9 21 Oeste 29 Oeste 0 -- -- 94
2019-11-23 21:00:00 2.6 10 Noroeste 20 Noroeste 0 -- -- 89
2019-11-23 20:00:00 2.9 9 Noroeste 14 Oeste 0 -- -- 87
2019-11-23 19:00:00 3.2 9 Noroeste 31 Noroeste 0 -- -- 85
2019-11-23 18:00:00 3.9 14 Noroeste 31 Noroeste 0 -- -- 82
2019-11-23 17:00:00 4.8 15 Noroeste 45 Oeste 0 -- -- 81
2019-11-23 16:00:00 5.1 29 Oeste 45 Noroeste 0 -- -- 75
2019-11-23 15:00:00 5.2 28 Noroeste 48 Oeste 0 -- -- 76
2019-11-23 14:00:00 4.8 30 Oeste 45 Oeste 0 -- -- 79
2019-11-23 13:00:00 4.2 23 Noroeste 46 Noroeste 0 -- -- 83
2019-11-23 12:00:00 3.7 31 Noroeste 42 Oeste 0 -- -- 85
2019-11-23 11:00:00 2.8 19 Noroeste 26 Noroeste 0 -- -- 93
2019-11-23 10:00:00 1.7 14 Noroeste 41 Oeste 0 -- -- 97
2019-11-23 09:00:00 1.5 26 Oeste 41 Oeste 0.2 -- -- 98
2019-11-23 08:00:00 1.5 28 Oeste 49 Oeste 0.2 -- -- 99
2019-11-23 07:00:00 1.8 24 Oeste 41 Oeste 0.6 -- -- 100
2019-11-23 06:00:00 1.9 24 Oeste 44 Noroeste 1.6 -- -- 100
2019-11-23 05:00:00 0.8 10 Noroeste 33 Noroeste 1 -- -- 100
2019-11-23 04:00:00 1.6 26 Oeste 54 Oeste 2 -- -- 98
2019-11-23 03:00:00 3.1 35 Oeste 60 Oeste 1.8 -- -- 98
2019-11-23 02:00:00 4.2 32 Oeste 59 Oeste 0 -- -- 95
2019-11-23 01:00:00 4.4 34 Oeste 61 Oeste 1 -- -- 97
2019-11-23 00:00:00 4.9 39 Oeste 58 Oeste 0.4 -- -- 97
2019-11-22 23:00:00 4.9 35 Oeste 58 Oeste 1.2 -- -- 97
2019-11-22 22:00:00 5.4 31 Oeste 50 Oeste 0.4 -- -- 95
2019-11-22 21:00:00 5.4 26 Oeste 46 Noroeste 0 -- -- 94
2019-11-22 20:00:00 6.1 28 Oeste 46 Oeste 0 -- -- 94
2019-11-22 19:00:00 7 35 Oeste 56 Oeste 0.2 -- -- 93
2019-11-22 18:00:00 7.5 25 Oeste 48 Oeste 0.6 -- -- 94
2019-11-22 17:00:00 7.7 14 Sudoeste 33 Sur 0.6 -- -- 93
2019-11-22 16:00:00 7 14 Oeste 33 Oeste 1.2 -- -- 95
2019-11-22 15:00:00 7.1 5 Oeste 39 Sudoeste 2.2 -- -- 93
2019-11-22 14:00:00 7.1 18 Sudoeste 38 Sudoeste 0.6 -- -- 89
2019-11-22 13:00:00 7.7 15 Sudoeste 38 Sudoeste 0.2 -- -- 86
2019-11-22 12:00:00 7 8 Sur 35 Oeste 0 -- -- 89
2019-11-22 11:00:00 6 8 Oeste 31 Oeste 0 -- -- 92
2019-11-22 10:00:00 4.7 14 Oeste 28 Sudoeste 0 -- -- 92
2019-11-22 09:00:00 4.6 11 Sudoeste 26 Sudoeste 0 -- -- 92
2019-11-22 08:00:00 4.1 2 Noroeste 21 Oeste 0 -- -- 94
2019-11-22 07:00:00 3.9 5 Oeste 19 Oeste 0 -- -- 94
2019-11-22 06:00:00 3.7 10 Oeste 33 Oeste 0 -- -- 93
2019-11-22 05:00:00 3.7 12 Oeste 21 Sudoeste 0 -- -- 90
2019-11-22 04:00:00 3.4 9 Sudoeste 22 Sudoeste 0 -- -- 92
2019-11-22 03:00:00 3.6 5 Noroeste 12 Noroeste 0 -- -- 92
2019-11-22 02:00:00 3.4 6 Oeste 11 Oeste 0 -- -- 93
2019-11-22 01:00:00 3.2 3 Nordeste 11 Noroeste 0 -- -- 96
2019-11-22 00:00:00 3.1 2 Norte 13 Noroeste 0 -- -- 96
2019-11-21 23:00:00 2.8 4 Norte 8 Noroeste 0 -- -- 98
2019-11-21 22:00:00 2.1 2 Este 5 Norte 0 -- -- 97
2019-11-21 21:00:00 2.6 5 Norte 8 Norte 0 -- -- 98
2019-11-21 20:00:00 2.4 3 Norte 6 Norte 0 -- -- 96
2019-11-21 19:00:00 2.7 2 Nordeste 10 Norte 0 -- -- 91
2019-11-21 18:00:00 3.3 6 Norte 17 Noroeste 0 -- -- 89
2019-11-21 17:00:00 4.9 13 Oeste 22 Noroeste 0 -- -- 86
2019-11-21 16:00:00 4.7 10 Noroeste 30 Noroeste 0 -- -- 91
2019-11-21 15:00:00 5.4 21 Oeste 28 Oeste 0.2 -- -- 96
2019-11-21 14:00:00 3.6 17 Oeste 30 Oeste 0.8 -- -- 99
2019-11-21 13:00:00 4 17 Oeste 26 Oeste 0.6 -- -- 98
2019-11-21 12:00:00 3.3 14 Oeste 28 Oeste 0.2 -- -- 100
2019-11-21 11:00:00 2.7 14 Oeste 21 Oeste 1 -- -- 100
2019-11-21 10:00:00 1.9 8 Noroeste 26 Oeste 1 -- -- 100
2019-11-21 09:00:00 2 10 Oeste 33 Oeste 1.2 -- -- 100
2019-11-21 08:00:00 -- -- -- -- -- -- -- -- --
2019-11-21 07:00:00 -- -- -- -- -- -- -- -- --
2019-11-21 06:00:00 -- -- -- -- -- -- -- -- --
2019-11-21 05:00:00 -- -- -- -- -- -- -- -- --
2019-11-21 04:00:00 -- -- -- -- -- -- -- -- --
2019-11-21 03:00:00 -- -- -- -- -- -- -- -- --
2019-11-21 02:00:00 -- -- -- -- -- -- -- -- --
2019-11-21 01:00:00 -- -- -- -- -- -- -- -- --
2019-11-21 00:00:00 -- -- -- -- -- -- -- -- --
2019-11-20 23:00:00 -- -- -- -- -- -- -- -- --
2019-11-20 22:00:00 -- -- -- -- -- -- -- -- --
2019-11-20 21:00:00 -- -- -- -- -- -- -- -- --
2019-11-20 20:00:00 -- -- -- -- -- -- -- -- --
2019-11-20 19:00:00 2.7 11 Oeste 19 Oeste 0.6 -- -- 96
2019-11-20 18:00:00 3.1 8 Noroeste 15 Oeste 0.2 -- -- 94
2019-11-20 17:00:00 3.6 5 Noroeste 14 Oeste 0.2 -- -- 92
2019-11-20 16:00:00 4.4 6 Sudoeste 19 Oeste 0 -- -- 83
2019-11-20 15:00:00 4.6 12 Oeste 27 Sudoeste 0 -- -- 80
2019-11-20 14:00:00 5.2 17 Oeste 25 Oeste 0 -- -- 72
2019-11-20 13:00:00 5.3 6 Noroeste 14 Noroeste 0 -- -- 71
2019-11-20 12:00:00 4.4 4 Oeste 6 Oeste 0 -- -- 86
2019-11-20 11:00:00 2.5 0 Calma 7 Oeste 0 -- -- 97
2019-11-20 10:00:00 -0.3 0 Calma 4 Norte 0 -- -- 100
2019-11-20 09:00:00 -1.2 0 Calma 3 Noroeste 0 -- -- 99
2019-11-20 08:00:00 -1.7 0 Calma 5 Noroeste 0 -- -- 99
2019-11-20 07:00:00 -2.1 2 Norte 4 Noroeste 0 -- -- 99
2019-11-20 06:00:00 -2.4 0 Calma 5 Noroeste 0 -- -- 99
2019-11-20 05:00:00 -2.4 4 Noroeste 5 Noroeste 0 -- -- 100
2019-11-20 04:00:00 -2.5 0 Calma 4 Oeste 0 -- -- 100
2019-11-20 03:00:00 -2.2 0 Calma 4 Noroeste 0 -- -- 99
2019-11-20 02:00:00 -1.9 0 Calma 4 Oeste 0 -- -- 99
2019-11-20 01:00:00 -1.5 0 Calma 4 Noroeste 0 -- -- 98
2019-11-20 00:00:00 -1 0 Calma 3 Noroeste 0 -- -- 98
2019-11-19 23:00:00 -0.7 0 Calma 3 Oeste 0 -- -- 97
2019-11-19 22:00:00 -0.4 0 Calma 8 Oeste 0 -- -- 97
2019-11-19 21:00:00 -0.2 5 Noroeste 6 Noroeste 0 -- -- 95
2019-11-19 20:00:00 0.2 5 Oeste 7 Oeste 0 -- -- 93
2019-11-19 19:00:00 0.8 2 Oeste 9 Norte 0 -- -- 90
2019-11-19 18:00:00 1.9 6 Noroeste 9 Oeste 0 -- -- 87
2019-11-19 17:00:00 3.2 9 Noroeste 22 Oeste 0 -- -- 83
2019-11-19 16:00:00 3.8 14 Oeste 25 Oeste 0 -- -- 79
2019-11-19 15:00:00 4.3 20 Oeste 27 Oeste 0 -- -- 78
2019-11-19 14:00:00 4 15 Oeste 23 Oeste 0 -- -- 81
2019-11-19 13:00:00 3.5 5 Oeste 10 Noroeste 0 -- -- 84
2019-11-19 12:00:00 1.5 7 Oeste 11 Oeste 0 -- -- 91
2019-11-19 11:00:00 0.9 2 Noroeste 5 Oeste 0 -- -- 95
2019-11-19 10:00:00 -1.1 2 Norte 4 Norte 0 -- -- 100
2019-11-19 09:00:00 -3.4 3 Oeste 5 Oeste 0 -- -- 99
2019-11-19 08:00:00 -3.6 0 Calma 4 Sudeste 0 -- -- 99
2019-11-19 07:00:00 -3.3 4 Oeste 6 Sudeste 0 -- -- 98
2019-11-19 06:00:00 -2.7 3 Noroeste 13 Oeste 0 -- -- 98
2019-11-19 05:00:00 -2.5 4 Sudeste 6 Sudeste 0 -- -- 97
2019-11-19 04:00:00 -1.5 3 Sudoeste 8 Este 0 -- -- 95
2019-11-19 03:00:00 -1.1 2 Este 12 Este 0 -- -- 95
2019-11-19 02:00:00 0.1 3 Norte 14 Oeste 0 -- -- 93
2019-11-19 01:00:00 0.3 4 Noroeste 9 Oeste 0 -- -- 93
2019-11-19 00:00:00 0.7 2 Oeste 7 Oeste 0 -- -- 89
2019-11-18 23:00:00 0.9 5 Sudeste 14 Este 0 -- -- 86
2019-11-18 22:00:00 1.3 4 Sudoeste 27 Nordeste 0 -- -- 81
2019-11-18 21:00:00 1.7 4 Sur 28 Sur 0 -- -- 79
2019-11-18 20:00:00 1.9 9 Este 27 Este 0 -- -- 78
2019-11-18 19:00:00 2.1 8 Este 21 Este 0 -- -- 79
2019-11-18 18:00:00 2.3 7 Este 27 Nordeste 0 -- -- 77
2019-11-18 17:00:00 2.3 18 Norte 27 Norte 0 -- -- 77
2019-11-18 16:00:00 2.9 15 Norte 37 Norte 0.2 -- -- 77
2019-11-18 15:00:00 2.9 8 Nordeste 30 Norte 0.6 -- -- 80
2019-11-18 14:00:00 2.3 10 Norte 30 Oeste 0.8 -- -- 83
2019-11-18 13:00:00 3 9 Noroeste 39 Norte 1.6 -- -- 77
2019-11-18 12:00:00 3 12 Sudoeste 31 Noroeste 0 -- -- 74
2019-11-18 11:00:00 2 11 Oeste 27 Oeste 0 -- -- 81
2019-11-18 10:00:00 1.6 9 Oeste 32 Sudoeste 0 -- -- 87
2019-11-18 09:00:00 1 10 Sudoeste 30 Sudeste 0 -- -- 91
2019-11-18 08:00:00 1.5 8 Sudeste 21 Nordeste 0 -- -- 84
2019-11-18 07:00:00 1.1 10 Oeste 26 Oeste 0 -- -- 90
2019-11-18 06:00:00 0.8 5 Sudoeste 28 Noroeste 0 -- -- 96
2019-11-18 05:00:00 1.1 4 Noroeste 14 Norte 0 -- -- 93
2019-11-18 04:00:00 1.7 6 Nordeste 21 Nordeste 0 -- -- 88
2019-11-18 03:00:00 1.7 5 Nordeste 20 Noroeste 0 -- -- 93
2019-11-18 02:00:00 1.2 5 Norte 14 Noroeste 0 -- -- 99
2019-11-18 01:00:00 1.5 6 Noroeste 16 Noroeste 0 -- -- 98
2019-11-18 00:00:00 0.8 9 Oeste 24 Noroeste 0 -- -- 100
2019-11-17 23:00:00 1.1 13 Noroeste 22 Noroeste 0 -- -- 100
2019-11-17 22:00:00 0.1 6 Oeste 11 Oeste 0 -- -- 100
2019-11-17 21:00:00 1.3 3 Sudeste 21 Oeste 0 -- -- 98
2019-11-17 20:00:00 1.6 6 Noroeste 12 Noroeste 0 -- -- 100
2019-11-17 19:00:00 1 3 Sudeste 12 Noroeste 0 -- -- 100
2019-11-17 18:00:00 1.6 8 Norte 14 Norte 0 -- -- 100
2019-11-17 17:00:00 1.7 2 Noroeste 10 Noroeste 0 -- -- 100
2019-11-17 16:00:00 1.2 5 Noroeste 9 Noroeste 0 -- -- 100
2019-11-17 15:00:00 0.9 4 Noroeste 6 Norte 0 -- -- 100
2019-11-17 14:00:00 1 0 Calma 8 Noroeste 0 -- -- 100
2019-11-17 13:00:00 1.1 5 Noroeste 11 Noroeste 0 -- -- 100
2019-11-17 12:00:00 1 8 Noroeste 14 Noroeste 0 -- -- 100
2019-11-17 11:00:00 0.8 7 Norte 19 Noroeste 0 -- -- 100
2019-11-17 10:00:00 0.2 13 Noroeste 18 Noroeste 0 -- -- 100
2019-11-17 09:00:00 -0.1 11 Noroeste 17 Oeste 0 -- -- 100
2019-11-17 08:00:00 -0.2 9 Noroeste 14 Noroeste 0 -- -- 100
2019-11-17 07:00:00 -0.5 3 Norte 6 Noroeste 0 -- -- 100
2019-11-17 06:00:00 -0.6 5 Noroeste 13 Oeste 0 -- -- 99
2019-11-17 05:00:00 -0.7 6 Norte 16 Norte 0 -- -- 98
2019-11-17 04:00:00 -0.6 6 Noroeste 19 Noroeste 0 -- -- 97
2019-11-17 03:00:00 -0.6 14 Noroeste 19 Noroeste 0 -- -- 97
2019-11-17 02:00:00 -1.1 9 Noroeste 18 Noroeste 0 -- -- 98
2019-11-17 01:00:00 -0.8 4 Noroeste 7 Norte 0 -- -- 97
2019-11-17 00:00:00 -0.9 2 Este 6 Norte 0 -- -- 98
2019-11-16 23:00:00 -0.9 3 Noroeste 8 Sur 0 -- -- 99
2019-11-16 22:00:00 -0.6 0 Calma 7 Noroeste 0 -- -- 99
2019-11-16 21:00:00 0.1 9 Noroeste 24 Noroeste 0.2 -- -- 98
2019-11-16 20:00:00 0.9 18 Noroeste 26 Noroeste 0.4 -- -- 99
2019-11-16 19:00:00 0.9 15 Noroeste 34 Noroeste 0.4 -- -- 100
2019-11-16 18:00:00 1.2 18 Noroeste 29 Noroeste 0.8 -- -- 100
2019-11-16 17:00:00 0.8 14 Noroeste 31 Oeste 1.2 -- -- 100
2019-11-16 16:00:00 1 19 Noroeste 35 Oeste 1.4 -- -- 100
2019-11-16 15:00:00 0.7 10 Noroeste 26 Oeste 0.8 -- -- 100
2019-11-16 14:00:00 0.4 16 Oeste 31 Oeste 0.8 -- -- 100
2019-11-16 13:00:00 -0.3 12 Oeste 18 Oeste 0.4 -- -- 100
2019-11-16 12:00:00 -0.7 0 Calma -- -- 0.4 -- -- 100
2019-11-16 11:00:00 -1.5 0 Calma -- -- 0 -- -- 100
2019-11-16 10:00:00 -2.6 0 Calma -- -- 0 -- -- 100
2019-11-16 09:00:00 -3.6 0 Calma -- -- 0 -- -- 100
2019-11-16 08:00:00 -4.1 0 Calma -- -- 0 -- -- 100
2019-11-16 07:00:00 -3.5 0 Calma -- -- 0 -- -- 100
2019-11-16 06:00:00 -4.9 0 Calma -- -- 0 -- -- 100
2019-11-16 05:00:00 -3.9 0 Calma -- -- 0 -- -- 100
2019-11-16 04:00:00 -3.8 0 Calma -- -- 0 -- -- 99
2019-11-16 03:00:00 -3.3 0 Calma -- -- 0 -- -- 100
2019-11-16 02:00:00 -2.7 0 Calma -- -- 0 -- -- 100
2019-11-16 01:00:00 -1.9 0 Calma -- -- 0 -- -- 100
2019-11-16 00:00:00 -0.6 0 Calma -- -- 0.2 -- -- 100
2019-11-15 23:00:00 -0.4 0 Calma -- -- 0 -- -- 100
2019-11-15 22:00:00 -0.3 0 Calma -- -- 0 -- -- 100
2019-11-15 21:00:00 -0.2 0 Calma 2 Noroeste 0.2 -- -- 100
2019-11-15 20:00:00 -0.2 2 Noroeste 9 Noroeste 0.2 -- -- 100
2019-11-15 19:00:00 -0.2 8 Noroeste 14 Noroeste 0.2 -- -- 100
2019-11-15 18:00:00 0 12 Noroeste 20 Oeste 0.6 -- -- 100
2019-11-15 17:00:00 0.2 8 Noroeste 12 Noroeste 0.8 -- -- 100
2019-11-15 16:00:00 0.3 8 Noroeste 13 Noroeste 0.6 -- -- 100
2019-11-15 15:00:00 0.2 6 Noroeste 14 Oeste 0 -- -- 100
2019-11-15 14:00:00 0.3 9 Oeste 12 Noroeste 0 -- -- 100
2019-11-15 13:00:00 0 8 Oeste 17 Oeste 0 -- -- 100
2019-11-15 12:00:00 -0.2 11 Oeste 19 Oeste 0 -- -- 100
2019-11-15 11:00:00 -0.3 10 Oeste 18 Oeste 0 -- -- 100
2019-11-15 10:00:00 -0.7 8 Oeste 15 Oeste 0 -- -- 100
2019-11-15 09:00:00 -0.8 10 Oeste 21 Oeste 0 -- -- 100
2019-11-15 08:00:00 -0.8 11 Oeste 23 Oeste 0 -- -- 100
2019-11-15 07:00:00 -0.8 11 Oeste 17 Oeste 0 -- -- 100
2019-11-15 06:00:00 -1.1 8 Noroeste 13 Oeste 0 -- -- 100
2019-11-15 05:00:00 -1.3 7 Noroeste 24 Oeste 0 -- -- 100
2019-11-15 04:00:00 -1.3 13 Oeste 22 Oeste 0 -- -- 100
2019-11-15 03:00:00 -1.7 4 Noroeste 10 Oeste 0 -- -- 100
2019-11-15 02:00:00 -2 11 Oeste 19 Oeste 0 -- -- 100
2019-11-15 01:00:00 -1.2 14 Noroeste 22 Oeste 0 -- -- 100
2019-11-15 00:00:00 -0.8 12 Noroeste 22 Noroeste 0 -- -- 100
2019-11-14 23:00:00 -0.5 10 Noroeste 26 Oeste 0 -- -- 100
2019-11-14 22:00:00 -0.5 12 Oeste 18 Oeste 0 -- -- 100
2019-11-14 21:00:00 -0.6 11 Oeste 23 Noroeste 0 -- -- 100
2019-11-14 20:00:00 -0.7 15 Noroeste 23 Noroeste 0 -- -- 100
2019-11-14 19:00:00 -0.6 14 Oeste 22 Oeste 0 -- -- 100
2019-11-14 18:00:00 -0.3 12 Oeste 33 Oeste 0 -- -- 100
2019-11-14 17:00:00 -0.2 10 Noroeste 36 Oeste 0 -- -- 100
2019-11-14 16:00:00 -0.3 27 Oeste 42 Oeste 0 -- -- 97
2019-11-14 15:00:00 1.4 27 Oeste 44 Oeste 0 -- -- 82
2019-11-14 14:00:00 1.6 27 Oeste 46 Oeste 0 -- -- 81
2019-11-14 13:00:00 1.2 29 Oeste 45 Oeste 0 -- -- 86
2019-11-14 12:00:00 0.8 26 Oeste 42 Oeste 0 -- -- 92
2019-11-14 11:00:00 0.9 24 Oeste 37 Oeste 1 -- -- 95
2019-11-14 10:00:00 0.6 10 Oeste 24 Oeste 0.4 -- -- 99
2019-11-14 09:00:00 0.2 6 Noroeste 12 Oeste 0 -- -- 100
2019-11-14 08:00:00 0.4 10 Oeste 16 Oeste 0 -- -- 99
2019-11-14 07:00:00 0.4 4 Noroeste 12 Sudoeste 0 -- -- 99
2019-11-14 06:00:00 0.6 3 Norte 32 Oeste 0.8 -- -- 98
2019-11-14 05:00:00 1.6 17 Oeste 57 Oeste 3.4 -- -- 98
2019-11-14 04:00:00 3.6 35 Oeste 65 Oeste 3 -- -- 98
2019-11-14 03:00:00 3.8 34 Oeste 52 Oeste 0.4 -- -- 95
2019-11-14 02:00:00 3.9 25 Oeste 46 Oeste 0 -- -- 92
2019-11-14 01:00:00 4.2 26 Oeste 50 Oeste 0 -- -- 93
2019-11-14 00:00:00 5 33 Oeste 49 Oeste 0 -- -- 92
2019-11-13 23:00:00 5.9 31 Oeste 48 Oeste 0 -- -- 91
2019-11-13 22:00:00 6.8 32 Oeste 49 Oeste 0 -- -- 89
2019-11-13 21:00:00 7 22 Oeste 35 Noroeste 0 -- -- 87
2019-11-13 20:00:00 6.5 19 Noroeste 30 Oeste 0 -- -- 89
2019-11-13 19:00:00 6.3 15 Noroeste 24 Noroeste 0 -- -- 89
2019-11-13 18:00:00 6.7 12 Oeste 27 Oeste 0 -- -- 84
2019-11-13 17:00:00 6.9 15 Oeste 36 Oeste 0 -- -- 83
2019-11-13 16:00:00 7.1 14 Noroeste 34 Oeste 0 -- -- 78
2019-11-13 15:00:00 7.8 24 Noroeste 36 Noroeste 0 -- -- 71
2019-11-13 14:00:00 7.8 10 Norte 23 Nordeste 0 -- -- 72
2019-11-13 13:00:00 6.5 9 Norte 33 Norte 0 -- -- 76
2019-11-13 12:00:00 6.5 7 Nordeste 25 Norte 0 -- -- 73
2019-11-13 11:00:00 6.5 7 Norte 21 Norte 0.2 -- -- 76
2019-11-13 10:00:00 5.2 11 Sudeste 23 Sudoeste 0 -- -- 89
2019-11-13 09:00:00 4.4 5 Sudeste 17 Nordeste 0 -- -- 93
2019-11-13 08:00:00 4.3 5 Sudoeste 14 Este 0 -- -- 91
2019-11-13 07:00:00 4.7 5 Nordeste 24 Sudeste 0 -- -- 90
2019-11-13 06:00:00 5.9 8 Este 22 Nordeste 0 -- -- 99
2019-11-13 05:00:00 5.4 3 Oeste 8 Noroeste 0 -- -- 100
2019-11-13 04:00:00 5.3 4 Norte 8 Noroeste 0 -- -- 100
2019-11-13 03:00:00 4.8 4 Noroeste 10 Noroeste 0 -- -- 100
2019-11-13 02:00:00 3.7 6 Norte 12 Norte 0 -- -- 100
2019-11-13 01:00:00 3.9 8 Norte 14 Norte 0 -- -- 100
2019-11-13 00:00:00 3.4 5 Noroeste 13 Norte 0 -- -- 100
2019-11-12 23:00:00 2.4 6 Oeste 13 Oeste 0 -- -- 100
2019-11-12 22:00:00 2.5 5 Oeste 15 Noroeste 0 -- -- 98
2019-11-12 21:00:00 1.9 9 Norte 25 Noroeste 0 -- -- 98
2019-11-12 20:00:00 2.5 16 Noroeste 32 Oeste 0 -- -- 97
2019-11-12 19:00:00 3.2 21 Oeste 30 Noroeste 0 -- -- 96
2019-11-12 18:00:00 4.1 16 Noroeste 33 Oeste 0 -- -- 93
2019-11-12 17:00:00 5 16 Oeste 28 Oeste 0 -- -- 86
2019-11-12 16:00:00 5.4 20 Oeste 33 Oeste 0 -- -- 85
2019-11-12 15:00:00 6.4 26 Oeste 40 Oeste 0 -- -- 78
2019-11-12 14:00:00 6.2 26 Oeste 36 Oeste 0 -- -- 83
2019-11-12 13:00:00 5 19 Oeste 27 Oeste 0 -- -- 83
2019-11-12 12:00:00 3.8 4 Sudeste 17 Oeste 0 -- -- 94
2019-11-12 11:00:00 2.4 10 Oeste 19 Oeste 0 -- -- 96
2019-11-12 10:00:00 2.6 14 Oeste 19 Oeste 0 -- -- 94
2019-11-12 09:00:00 0.9 4 Noroeste 10 Norte 0 -- -- 99
2019-11-12 08:00:00 0.6 4 Noroeste 8 Noroeste 0 -- -- 97
2019-11-12 07:00:00 1.1 7 Noroeste 13 Noroeste 0 -- -- 96
2019-11-12 06:00:00 0.9 4 Noroeste 17 Oeste 0 -- -- 96
2019-11-12 05:00:00 2 13 Oeste 23 Oeste 0 -- -- 94
2019-11-12 04:00:00 2.3 6 Oeste 15 Oeste 0 -- -- 95
2019-11-12 03:00:00 1.8 3 Noroeste 13 Noroeste 0 -- -- 93
2019-11-12 02:00:00 2.1 6 Noroeste 13 Noroeste 0 -- -- 88
2019-11-12 01:00:00 1.6 3 Sur 14 Oeste 0 -- -- 88
2019-11-12 00:00:00 1.5 3 Sur 15 Oeste 0 -- -- 88
2019-11-11 23:00:00 2.8 10 Nordeste 35 Norte 0 -- -- 83
2019-11-11 22:00:00 3 4 Noroeste 31 Norte 0 -- -- 86
2019-11-11 21:00:00 3.2 11 Norte 33 Este 0 -- -- 83
2019-11-11 20:00:00 3.3 14 Nordeste 30 Norte 0 -- -- 85
2019-11-11 19:00:00 3.2 3 Noroeste 24 Norte 0 -- -- 89
2019-11-11 18:00:00 3.8 9 Norte 24 Norte 0 -- -- 86
2019-11-11 17:00:00 4.2 14 Norte 33 Norte 0 -- -- 85
2019-11-11 16:00:00 4.7 7 Nordeste 37 Norte 0 -- -- 79
2019-11-11 15:00:00 4.3 14 Noroeste 36 Noroeste 0 -- -- 94
2019-11-11 14:00:00 3.9 12 Noroeste 24 Noroeste 0 -- -- 100
2019-11-11 13:00:00 2.8 13 Noroeste 18 Noroeste 0 -- -- 100
2019-11-11 12:00:00 1.8 10 Noroeste 15 Noroeste 0 -- -- 100
2019-11-11 11:00:00 1.2 8 Noroeste 14 Noroeste 0 -- -- 100
2019-11-11 10:00:00 0.9 7 Noroeste 16 Noroeste 0 -- -- 100
2019-11-11 09:00:00 0.6 12 Noroeste 17 Noroeste 0 -- -- 100
2019-11-11 08:00:00 0.3 2 Oeste 3 Oeste 0 -- -- 100
2019-11-11 07:00:00 0.4 0 Calma 4 Noroeste 0 -- -- 100
2019-11-11 06:00:00 0.4 3 Noroeste 9 Noroeste 0 -- -- 100
2019-11-11 05:00:00 0.3 5 Noroeste 8 Noroeste 0 -- -- 100
2019-11-11 04:00:00 0.2 0 Calma 5 Noroeste 0 -- -- 100
2019-11-11 03:00:00 0.2 3 Norte 5 Oeste 0 -- -- 100
2019-11-11 02:00:00 0.2 3 Noroeste 9 Noroeste 0 -- -- 100
2019-11-11 01:00:00 0.2 5 Noroeste 12 Noroeste 0 -- -- 100
2019-11-11 00:00:00 0.2 7 Noroeste 10 Noroeste 0 -- -- 100
2019-11-10 23:00:00 0.2 4 Noroeste 14 Oeste 0 -- -- 100
2019-11-10 22:00:00 0.1 8 Noroeste 13 Noroeste 0 -- -- 100
2019-11-10 21:00:00 0.1 5 Oeste 16 Oeste 0 -- -- 99
2019-11-10 20:00:00 0.1 2 Norte 13 Norte 0 -- -- 98
2019-11-10 19:00:00 0.8 3 Noroeste 25 Noroeste 0.2 -- -- 95
2019-11-10 18:00:00 0.3 6 Oeste 20 Norte 0.2 -- -- 98
2019-11-10 17:00:00 1.5 14 Norte 31 Noroeste 1.4 -- -- 89
2019-11-10 16:00:00 1.5 15 Noroeste 33 Noroeste 2.2 -- -- 90
2019-11-10 15:00:00 0.9 13 Noroeste 35 Noroeste 1.2 -- -- 98
2019-11-10 14:00:00 0.3 11 Oeste 17 Oeste 0 -- -- 100
2019-11-10 13:00:00 0 6 Oeste 22 Oeste 0 -- -- 100
2019-11-10 12:00:00 -0.2 17 Oeste 25 Oeste 0 -- -- 100
2019-11-10 11:00:00 -0.3 15 Oeste 21 Oeste 0 -- -- 100
2019-11-10 10:00:00 -0.5 11 Oeste 25 Oeste 0 -- -- 99
2019-11-10 09:00:00 -0.2 17 Oeste 25 Oeste 0 -- -- 97
2019-11-10 08:00:00 -0.1 12 Oeste 35 Noroeste 0 -- -- 94
2019-11-10 07:00:00 1 15 Noroeste 31 Noroeste 0 -- -- 82
2019-11-10 06:00:00 1 14 Norte 50 Norte 0 -- -- 82
2019-11-10 05:00:00 1 13 Noroeste 38 Nordeste 0 -- -- 86
2019-11-10 04:00:00 1.2 17 Norte 42 Norte 0.2 -- -- 85
2019-11-10 03:00:00 1.5 10 Noroeste 41 Norte 0 -- -- 86
2019-11-10 02:00:00 1.5 10 Noroeste 56 Norte 0.2 -- -- 83
2019-11-10 01:00:00 1.8 14 Noroeste 36 Norte 0 -- -- 91
2019-11-10 00:00:00 1.2 9 Oeste 19 Noroeste 0 -- -- 100
2019-11-09 23:00:00 0.9 9 Oeste 43 Nordeste 0 -- -- 100
2019-11-09 22:00:00 4.4 19 Noroeste 48 Oeste 0 -- -- 100
2019-11-09 21:00:00 4.9 25 Noroeste 43 Oeste 0 -- -- 100
2019-11-09 20:00:00 4.8 22 Oeste 33 Oeste 0 -- -- 100
2019-11-09 19:00:00 4.3 13 Noroeste 21 Noroeste 0 -- -- 100
2019-11-09 18:00:00 3.8 4 Norte 17 Noroeste 0 -- -- 100
2019-11-09 17:00:00 3.6 6 Noroeste 21 Oeste 0 -- -- 100
2019-11-09 16:00:00 3.6 18 Oeste 25 Oeste 0 -- -- 100
2019-11-09 15:00:00 3.2 18 Noroeste 33 Noroeste 0 -- -- 100
2019-11-09 14:00:00 2.4 18 Noroeste 26 Noroeste 0 -- -- 100
2019-11-09 13:00:00 1.6 18 Noroeste 23 Noroeste 0 -- -- 100
2019-11-09 12:00:00 1.5 13 Oeste 24 Oeste 0 -- -- 100
2019-11-09 11:00:00 0.8 13 Noroeste 28 Noroeste 0 -- -- 100
2019-11-09 10:00:00 1.2 17 Oeste 31 Oeste 0 -- -- 99
2019-11-09 09:00:00 1.3 19 Oeste 28 Oeste 0 -- -- 99
2019-11-09 08:00:00 0.8 5 Noroeste 14 Noroeste 0 -- -- 99
2019-11-09 07:00:00 0.7 10 Oeste 17 Oeste 0 -- -- 99
2019-11-09 06:00:00 0.8 10 Oeste 22 Oeste 0 -- -- 99
2019-11-09 05:00:00 0.8 11 Oeste 19 Noroeste 0 -- -- 99
2019-11-09 04:00:00 0.6 10 Noroeste 20 Oeste 0 -- -- 100
2019-11-09 03:00:00 0.6 13 Noroeste 18 Noroeste 0 -- -- 99
2019-11-09 02:00:00 0.7 11 Noroeste 19 Oeste 0 -- -- 97
2019-11-09 01:00:00 1 15 Noroeste 21 Oeste 0 -- -- 97
2019-11-09 00:00:00 1.5 14 Noroeste 21 Noroeste 0 -- -- 92
2019-11-08 23:00:00 2 15 Noroeste 26 Noroeste 0 -- -- 87
2019-11-08 22:00:00 1.7 11 Noroeste 19 Noroeste 0 -- -- 90
2019-11-08 21:00:00 1.7 12 Oeste 19 Oeste 0 -- -- 90
2019-11-08 20:00:00 2.3 13 Oeste 26 Oeste 0 -- -- 89
2019-11-08 19:00:00 2.8 9 Noroeste 20 Noroeste 0 -- -- 87
2019-11-08 18:00:00 3.4 13 Noroeste 22 Noroeste 0.2 -- -- 87
2019-11-08 17:00:00 3.4 13 Noroeste 31 Oeste 0.2 -- -- 90
2019-11-08 16:00:00 2.7 11 Norte 29 Oeste 0.4 -- -- 94
2019-11-08 15:00:00 2.7 22 Noroeste 39 Oeste 0.8 -- -- 94
2019-11-08 14:00:00 2 26 Oeste 39 Noroeste 1.8 -- -- 95
2019-11-08 13:00:00 1.3 21 Oeste 37 Oeste 0 -- -- 100
2019-11-08 12:00:00 0.3 19 Oeste 29 Oeste 0 -- -- 100
2019-11-08 11:00:00 -0.1 20 Oeste 31 Oeste 0 -- -- 100
2019-11-08 10:00:00 -0.3 19 Oeste 31 Oeste 0 -- -- 100
2019-11-08 09:00:00 -0.5 17 Oeste 28 Oeste 0 -- -- 100
2019-11-08 08:00:00 -0.5 18 Oeste 29 Oeste 0 -- -- 100
2019-11-08 07:00:00 -0.7 24 Oeste 36 Oeste 0 -- -- 100
2019-11-08 06:00:00 -0.8 16 Oeste 26 Oeste 0 -- -- 100
2019-11-08 05:00:00 -0.9 18 Oeste 28 Noroeste 0 -- -- 100
2019-11-08 04:00:00 -0.9 15 Oeste 35 Oeste 0 -- -- 99
2019-11-08 03:00:00 -0.6 22 Oeste 35 Oeste 0 -- -- 97
2019-11-08 02:00:00 -0.5 22 Oeste 39 Noroeste 0 -- -- 95
2019-11-08 01:00:00 -0.3 22 Oeste 40 Oeste 0 -- -- 95
2019-11-08 00:00:00 0.2 25 Oeste 43 Oeste 0 -- -- 94
2019-11-07 23:00:00 0.3 16 Oeste 28 Oeste 0 -- -- 92
2019-11-07 22:00:00 0.4 13 Oeste 21 Oeste 0 -- -- 91
2019-11-07 21:00:00 0.5 8 Oeste 32 Oeste 0 -- -- 91
2019-11-07 20:00:00 1 21 Oeste 31 Oeste 0.2 -- -- 92
2019-11-07 19:00:00 2.1 18 Oeste 36 Oeste 1.4 -- -- 97
2019-11-07 18:00:00 2 17 Oeste 26 Oeste 1.4 -- -- 97
2019-11-07 17:00:00 1.2 9 Noroeste 42 Noroeste 0 -- -- 97
2019-11-07 16:00:00 4.3 27 Noroeste 55 Noroeste 0 -- -- 74
2019-11-07 15:00:00 5.9 39 Oeste 57 Oeste 0 -- -- 63
2019-11-07 14:00:00 5 30 Noroeste 44 Oeste 0 -- -- 73
2019-11-07 13:00:00 5.5 30 Oeste 44 Oeste 0 -- -- 78
2019-11-07 12:00:00 4.8 28 Oeste 38 Noroeste 0 -- -- 87
2019-11-07 11:00:00 4.4 21 Noroeste 39 Oeste 0 -- -- 82
2019-11-07 10:00:00 4.4 19 Oeste 32 Oeste 0 -- -- 92
2019-11-07 09:00:00 4.5 19 Oeste 32 Oeste 0 -- -- 97
2019-11-07 08:00:00 5.3 22 Oeste 32 Oeste 0 -- -- 99
2019-11-07 07:00:00 5.9 14 Oeste 22 Oeste 0 -- -- 99
2019-11-07 06:00:00 6.5 10 Noroeste 34 Oeste 0 -- -- 100
2019-11-07 05:00:00 7 27 Oeste 45 Oeste 0.6 -- -- 100
2019-11-07 04:00:00 6.8 21 Oeste 32 Oeste 2.2 -- -- 100
2019-11-07 03:00:00 6.5 15 Noroeste 24 Oeste 3 -- -- 100
2019-11-07 02:00:00 6.3 14 Oeste 26 Oeste 1.4 -- -- 100
2019-11-07 01:00:00 6.1 17 Oeste 27 Oeste 1 -- -- 100
2019-11-07 00:00:00 6 13 Noroeste 24 Oeste 1 -- -- 100
2019-11-06 23:00:00 5.8 12 Noroeste 22 Noroeste 1.2 -- -- 100
2019-11-06 22:00:00 5.7 11 Noroeste 30 Oeste 0.8 -- -- 100
2019-11-06 21:00:00 5.5 13 Noroeste 25 Oeste 0.4 -- -- 99
2019-11-06 20:00:00 5.5 13 Noroeste 24 Oeste 0 -- -- 98
2019-11-06 19:00:00 5.9 17 Noroeste 27 Oeste 0 -- -- 90
2019-11-06 18:00:00 6.3 9 Oeste 22 Oeste 0 -- -- 87
2019-11-06 17:00:00 6.6 16 Oeste 28 Oeste 0 -- -- 83
2019-11-06 16:00:00 7 18 Oeste 33 Oeste 0 -- -- 82
2019-11-06 15:00:00 6.4 17 Oeste 32 Oeste 0 -- -- 82
2019-11-06 14:00:00 6.1 19 Oeste 36 Oeste 0 -- -- 83
2019-11-06 13:00:00 6.3 25 Oeste 35 Oeste 0 -- -- 83
2019-11-06 12:00:00 4.5 11 Sudoeste 19 Oeste 0 -- -- 96
2019-11-06 11:00:00 4.3 7 Noroeste 13 Oeste 0 -- -- 97
2019-11-06 10:00:00 3.5 8 Oeste 13 Noroeste 0 -- -- 99
2019-11-06 09:00:00 2.7 6 Noroeste 12 Noroeste 0 -- -- 100
2019-11-06 08:00:00 2.2 7 Noroeste 11 Noroeste 0 -- -- 100
2019-11-06 07:00:00 2.3 6 Noroeste 25 Oeste 0 -- -- 99
2019-11-06 06:00:00 2.6 13 Oeste 20 Oeste 0 -- -- 99
2019-11-06 05:00:00 3.3 9 Noroeste 22 Noroeste 0 -- -- 97
2019-11-06 04:00:00 3.4 12 Noroeste 31 Oeste 0.2 -- -- 98
2019-11-06 03:00:00 3.5 21 Oeste 32 Noroeste 0 -- -- 96
2019-11-06 02:00:00 3.6 11 Noroeste 24 Noroeste 0.2 -- -- 96
2019-11-06 01:00:00 3.4 13 Noroeste 30 Oeste 0.6 -- -- 96
2019-11-06 00:00:00 3.8 10 Noroeste 17 Noroeste 0.4 -- -- 95